Time;durP1;ratioP1;P1;durP2;ratioP2;P2;SDS_P1;SDS_P2;PMS_P1;PMS_P2;Temp;Humidity;BMP_temperature;BMP_pressure;BME280_temperature;BME280_humidity;BME280_pressure;Samples;Min_cycle;Max_cycle;Signal;HPM_P1;HPM_P2
2022/09/20 00:01:34;;;;;;;2.53;1.37;;;10.50;99.90;;;-141.84;82.92;18371.13;5090975;28;20277;-60
2022/09/20 00:04:05;;;;;;;2.90;1.50;;;10.50;99.90;;;-141.84;83.06;18338.63;5091166;28;20688;-60
2022/09/20 00:06:35;;;;;;;1.93;1.30;;;10.60;99.90;;;-141.84;81.35;18383.31;5091243;28;20221;-60
2022/09/20 00:09:05;;;;;;;2.40;1.47;;;10.60;99.90;;;-141.84;81.52;18381.28;5091604;28;20207;-61
2022/09/20 00:11:35;;;;;;;3.60;1.57;;;10.60;99.90;;;-141.84;81.70;18405.66;5091000;28;20228;-60
2022/09/20 00:14:07;;;;;;;2.30;1.50;;;10.60;99.90;;;-141.84;81.68;18383.31;5091043;28;20230;-61
2022/09/20 00:16:39;;;;;;;2.07;1.20;;;10.60;99.90;;;-141.84;80.37;18434.13;5091150;28;20642;-61
2022/09/20 00:19:15;;;;;;;1.90;1.37;;;10.70;99.90;;;-141.84;79.42;18452.41;5091188;28;20230;-61
2022/09/20 00:21:44;;;;;;;2.53;1.20;;;10.70;99.90;;;-141.84;80.21;18405.66;5090897;28;20231;-60
2022/09/20 00:24:12;;;;;;;2.70;1.50;;;10.70;99.90;;;-141.84;80.34;18403.63;5091388;28;20219;-61
2022/09/20 00:26:40;;;;;;;2.87;1.50;;;10.70;99.90;;;-141.84;79.89;18405.66;5090780;28;20224;-61
2022/09/20 00:29:08;;;;;;;3.13;1.60;;;10.70;99.90;;;-141.84;80.28;18417.84;5090812;28;20737;-60
2022/09/20 00:31:39;;;;;;;3.47;1.67;;;10.70;99.90;;;-141.84;81.05;18436.16;5090863;28;20600;-60
2022/09/20 00:36:54;;;;;;;2.33;1.40;;;10.70;99.90;;;-141.84;81.38;18407.69;5090971;28;20602;-61
2022/09/20 00:39:23;;;;;;;3.87;1.60;;;10.70;99.90;;;-141.84;81.67;18391.44;5090555;28;20220;-61
2022/09/20 00:41:51;;;;;;;3.00;1.40;;;10.70;99.90;;;-141.84;81.56;18385.34;5091452;28;20200;-62
2022/09/20 00:44:44;;;;;;;3.10;1.37;;;10.70;99.90;;;-141.84;81.38;18411.75;5090719;28;20224;-60
2022/09/20 00:47:22;;;;;;;2.90;1.37;;;10.70;99.90;;;-141.84;82.40;18375.19;5094657;28;20231;-61
2022/09/20 00:49:56;;;;;;;2.73;1.27;;;10.60;99.90;;;-141.84;83.09;18365.03;5094347;28;20768;-60
2022/09/20 00:52:27;;;;;;;2.27;1.40;;;10.50;99.90;;;-141.84;83.75;18344.72;5093907;28;20608;-61
2022/09/20 00:54:57;;;;;;;4.77;1.53;;;10.40;99.90;;;-141.84;83.54;18322.38;5094503;28;20234;-59
2022/09/20 00:57:25;;;;;;;7.33;1.90;;;10.40;99.90;;;-141.84;83.83;18334.56;5094179;28;20208;-61
2022/09/20 00:59:54;;;;;;;5.53;1.73;;;10.30;99.90;;;-141.84;83.42;18350.81;5094809;28;20617;-59
2022/09/20 01:02:28;;;;;;;4.50;1.60;;;10.40;99.90;;;-141.84;83.80;18350.81;5093963;28;20224;-61
2022/09/20 01:04:57;;;;;;;3.73;1.40;;;10.30;99.90;;;-141.84;83.91;18273.63;5094212;28;20228;-60
2022/09/20 01:07:28;;;;;;;2.33;1.47;;;10.30;99.90;;;-141.84;84.12;18320.34;5093883;28;20228;-60
2022/09/20 01:09:56;;;;;;;4.20;1.63;;;10.30;99.90;;;-141.84;84.60;18316.28;5094266;28;20234;-60
2022/09/20 01:12:30;;;;;;;2.33;1.70;;;10.30;99.90;;;-141.84;85.23;18320.34;5094246;28;20215;-61
2022/09/20 01:15:00;;;;;;;5.33;1.60;;;10.30;99.90;;;-141.84;85.78;18318.31;5094606;28;20188;-60
2022/09/20 01:17:34;;;;;;;3.70;1.43;;;10.30;99.90;;;-141.84;85.24;18330.50;5093756;28;20235;-60
2022/09/20 01:20:19;;;;;;;3.83;2.20;;;10.30;99.90;;;-141.84;85.33;18289.88;5093695;28;20223;-61
2022/09/20 01:23:21;;;;;;;4.97;2.40;;;10.20;99.90;;;-141.84;85.59;18289.88;5093492;28;20231;-61
2022/09/20 01:26:20;;;;;;;5.97;2.70;;;10.20;99.90;;;-141.84;86.14;18302.06;5093796;28;20714;-60
2022/09/20 01:29:01;;;;;;;3.03;2.40;;;10.20;99.90;;;-141.84;86.00;18271.59;5093286;28;20232;-61
2022/09/20 01:31:35;;;;;;;2.83;2.23;;;10.10;99.90;;;-141.84;86.21;18314.25;5093694;28;20737;-59
2022/09/20 01:34:11;;;;;;;4.03;2.20;;;10.10;99.90;;;-141.84;85.88;18277.69;5093524;28;20777;-60
2022/09/20 01:36:49;;;;;;;3.10;2.20;;;10.10;99.90;;;-141.84;86.24;18289.88;5093736;28;20227;-59
2022/09/20 01:39:30;;;;;;;5.73;2.33;;;10.00;99.90;;;-141.84;86.53;18265.50;5093542;28;20180;-60
2022/09/20 01:42:04;;;;;;;3.70;2.07;;;10.10;99.90;;;-141.84;85.17;18289.88;5093508;28;20192;-60
2022/09/20 01:44:45;;;;;;;2.97;2.20;;;10.10;99.90;;;-141.84;85.21;18285.81;5093438;28;20223;-61
2022/09/20 01:47:31;;;;;;;3.30;2.10;;;10.10;99.90;;;-141.84;85.54;18263.47;5093130;28;20726;-60
2022/09/20 01:50:15;;;;;;;4.10;2.00;;;10.10;99.90;;;-141.84;86.02;18261.44;5093200;28;20300;-59
2022/09/20 01:53:28;;;;;;;2.73;1.83;;;10.10;99.90;;;-141.84;85.77;18269.56;5092975;28;20231;-60
2022/09/20 01:56:41;;;;;;;5.80;2.10;;;10.20;99.90;;;-141.84;85.98;18275.66;5092998;28;20235;-61
2022/09/20 01:59:42;;;;;;;4.20;2.27;;;10.20;99.90;;;-141.84;86.69;18265.50;5092761;28;20641;-61
2022/09/20 02:02:35;;;;;;;5.50;2.20;;;10.20;99.90;;;-141.84;86.44;18271.59;5092822;28;20227;-60
2022/09/20 02:05:34;;;;;;;4.63;2.20;;;10.20;99.90;;;-141.84;86.21;18275.66;5092915;28;20231;-62
2022/09/20 02:08:28;;;;;;;5.20;2.20;;;10.30;99.90;;;-141.84;85.79;18300.03;5092627;28;20224;-60
2022/09/20 02:11:15;;;;;;;4.10;2.30;;;10.30;99.90;;;-141.84;84.99;18289.88;5092751;28;20756;-59
2022/09/20 02:14:08;;;;;;;5.50;2.40;;;10.30;99.90;;;-141.84;85.21;18289.88;5092515;28;20726;-58
2022/09/20 02:16:49;;;;;;;4.63;2.10;;;10.30;99.90;;;-141.84;84.66;18265.50;5092629;28;20660;-59
2022/09/20 02:19:53;;;;;;;4.40;2.10;;;10.30;99.90;;;-141.84;84.55;18273.63;5092490;28;20247;-59
2022/09/20 02:22:44;;;;;;;3.37;2.00;;;10.40;99.90;;;-141.84;83.25;18318.31;5090666;28;20228;-59
2022/09/20 02:25:43;;;;;;;3.77;2.30;;;10.40;99.90;;;-141.84;83.81;18326.44;5092531;28;20277;-62
2022/09/20 02:28:30;;;;;;;3.70;2.30;;;10.40;99.90;;;-141.84;83.36;18336.59;5092345;28;20220;-61
2022/09/20 02:31:14;;;;;;;4.30;2.37;;;10.40;99.90;;;-141.84;83.54;18328.47;5092594;28;20746;-60
2022/09/20 02:34:12;;;;;;;6.47;2.30;;;10.40;99.90;;;-141.84;83.54;18330.50;5092621;28;20219;-60
2022/09/20 02:36:55;;;;;;;4.37;2.30;;;10.40;99.90;;;-141.84;82.86;18281.75;5092348;28;20722;-61
2022/09/20 02:39:36;;;;;;;3.53;2.20;;;10.50;99.90;;;-141.84;83.06;18289.88;5092118;28;20188;-60
2022/09/20 02:42:15;;;;;;;5.13;2.20;;;10.50;99.90;;;-141.84;82.91;18316.28;5092711;28;20211;-60
2022/09/20 02:45:00;;;;;;;4.33;2.17;;;10.50;99.90;;;-141.84;82.93;18358.94;5092592;28;20265;-62
2022/09/20 02:47:36;;;;;;;5.10;2.63;;;10.40;99.90;;;-141.84;82.97;18324.41;5092012;28;20637;-61
2022/09/20 02:50:24;;;;;;;4.60;2.23;;;10.50;99.90;;;-141.84;83.27;18314.25;5091797;28;20577;-60
2022/09/20 02:53:17;;;;;;;3.17;2.00;;;10.40;99.90;;;-141.84;83.45;18310.19;5091693;28;20220;-59
2022/09/20 02:55:59;;;;;;;2.30;2.07;;;10.40;99.90;;;-141.84;83.48;18306.13;5092110;28;20223;-60
2022/09/20 02:58:41;;;;;;;5.13;2.20;;;10.40;99.90;;;-141.84;83.60;18314.25;5091761;28;20242;-60
2022/09/20 03:01:38;;;;;;;5.53;2.20;;;10.40;99.90;;;-141.84;82.72;18322.38;5091972;28;20235;-59
2022/09/20 03:04:37;;;;;;;3.37;1.90;;;10.50;99.90;;;-141.84;80.72;18334.56;5091882;28;20250;-59
2022/09/20 03:07:23;;;;;;;3.93;2.07;;;10.50;99.90;;;-141.84;81.04;18377.22;5091772;28;20804;-60
2022/09/20 03:10:10;;;;;;;5.03;2.07;;;10.50;99.90;;;-141.84;80.37;18385.34;5090863;28;20227;-65
2022/09/20 03:13:00;;;;;;;3.43;1.77;;;10.60;99.90;;;-141.84;80.85;18320.34;5091773;28;20230;-66
2022/09/20 03:15:45;;;;;;;2.93;1.70;;;10.50;99.90;;;-141.84;81.77;18324.41;5091665;28;20191;-65
2022/09/20 03:18:20;;;;;;;4.90;2.00;;;10.50;99.90;;;-141.84;82.26;18332.53;5092251;28;20241;-65
2022/09/20 03:21:07;;;;;;;2.63;2.03;;;10.40;99.90;;;-141.84;82.20;18336.59;5091807;28;20292;-65
2022/09/20 03:23:57;;;;;;;2.93;1.60;;;10.40;99.90;;;-141.84;82.28;18332.53;5091151;28;20224;-66
2022/09/20 03:26:46;;;;;;;4.87;2.10;;;10.40;99.90;;;-141.84;82.37;18342.69;5091560;28;20220;-64
2022/09/20 03:29:35;;;;;;;4.20;2.00;;;10.40;99.90;;;-141.84;82.83;18330.50;5091158;28;20749;-66
2022/09/20 03:32:28;;;;;;;2.83;1.90;;;10.60;99.90;;;-141.84;82.99;18328.47;5091619;28;20235;-66
2022/09/20 03:35:17;;;;;;;3.23;1.97;;;10.40;99.90;;;-141.84;83.17;18330.50;5091213;28;20614;-65
2022/09/20 03:38:10;;;;;;;2.63;1.70;;;10.40;99.90;;;-141.84;82.74;18306.13;5091379;28;20220;-65
2022/09/20 03:41:11;;;;;;;2.17;1.97;;;10.40;99.90;;;-141.84;81.53;18356.91;5091195;28;20231;-65
2022/09/20 03:44:07;;;;;;;4.57;1.80;;;10.40;99.90;;;-141.84;81.37;18344.72;5091187;28;20230;-65
2022/09/20 03:46:45;;;;;;;3.93;1.93;;;10.40;99.90;;;-141.84;80.66;18326.44;5091366;28;20230;-66
2022/09/20 03:49:53;;;;;;;3.97;1.87;;;10.40;99.90;;;-141.84;81.39;18330.50;5091339;28;20224;-64
2022/09/20 03:52:51;;;;;;;3.53;1.90;;;10.40;99.90;;;-141.84;81.43;18340.66;5091433;28;20226;-64
2022/09/20 03:55:48;;;;;;;5.07;1.60;;;10.30;99.90;;;-141.84;80.75;18352.84;5091111;28;20257;-65
2022/09/20 03:58:34;;;;;;;3.70;1.80;;;10.40;99.90;;;-141.84;81.07;18342.69;5091123;28;20220;-65
2022/09/20 04:01:32;;;;;;;5.77;2.90;;;10.40;99.90;;;-141.84;80.68;18328.47;5091104;28;20224;-65
2022/09/20 04:04:11;;;;;;;3.80;1.90;;;10.30;99.90;;;-141.84;80.41;18340.66;5091137;28;20233;-66
2022/09/20 04:07:01;;;;;;;4.13;1.80;;;10.40;99.90;;;-141.84;80.45;18371.13;5091364;28;20227;-65
2022/09/20 04:09:54;;;;;;;5.23;2.30;;;10.40;99.90;;;-141.84;80.79;18346.75;5090845;28;20643;-66
2022/09/20 04:12:38;;;;;;;4.27;2.10;;;10.40;99.90;;;-141.84;79.78;18363.00;5091313;28;20213;-64
2022/09/20 04:15:27;;;;;;;6.50;2.57;;;10.40;99.90;;;-141.84;79.26;18363.00;5091629;28;20203;-66
2022/09/20 04:18:04;;;;;;;4.87;1.93;;;10.40;99.90;;;-141.84;78.87;18346.75;5091572;28;20208;-65
2022/09/20 04:20:45;;;;;;;5.07;2.00;;;10.50;99.90;;;-141.84;78.79;18399.56;5092645;28;20228;-65
2022/09/20 04:23:31;;;;;;;4.40;1.77;;;10.40;99.90;;;-141.84;79.39;18369.09;5094627;28;20779;-66
2022/09/20 04:26:03;;;;;;;5.37;1.97;;;10.40;99.90;;;-141.84;79.15;18425.97;5094936;28;20238;-65
2022/09/20 04:28:43;;;;;;;5.73;2.57;;;10.40;99.90;;;-141.84;79.17;18387.38;5094650;28;20232;-64
2022/09/20 04:31:30;;;;;;;4.07;2.10;;;10.40;99.90;;;-141.84;80.20;18375.19;5094935;28;20224;-65
2022/09/20 04:34:02;;;;;;;6.10;2.23;;;10.40;99.90;;;-141.84;80.42;18391.44;5094807;28;20236;-65
2022/09/20 04:36:55;;;;;;;3.00;2.13;;;10.40;99.90;;;-141.84;80.71;18379.25;5094602;28;20219;-65
2022/09/20 04:39:41;;;;;;;4.80;2.17;;;10.40;99.90;;;-141.84;81.17;18363.00;5094693;28;20234;-65
2022/09/20 04:43:08;;;;;;;7.67;2.37;;;10.40;99.90;;;-141.84;79.61;18371.13;5095200;28;20204;-64
2022/09/20 04:46:24;;;;;;;3.97;2.30;;;10.30;99.90;;;-141.84;80.08;18387.38;5094486;28;20276;-64
2022/09/20 04:49:42;;;;;;;5.63;2.30;;;10.30;99.90;;;-141.84;79.24;18379.25;5094393;28;20828;-65
2022/09/20 04:52:52;;;;;;;4.23;2.37;;;10.30;99.90;;;-141.84;79.93;18358.94;5094380;28;20239;-64
2022/09/20 04:55:57;;;;;;;6.47;2.47;;;10.40;99.90;;;-141.84;79.82;18371.13;5094358;28;20239;-65
2022/09/20 04:59:06;;;;;;;3.97;2.60;;;10.40;99.90;;;-141.84;79.76;18358.94;5093784;28;20227;-64
2022/09/20 05:02:23;;;;;;;3.87;2.50;;;10.30;99.90;;;-141.84;80.10;18385.34;5031333;28;20233;-65
2022/09/20 05:05:48;;;;;;;3.90;2.80;;;10.40;99.90;;;-141.84;79.29;18363.00;5094025;28;20228;-65
2022/09/20 05:12:00;;;;;;;4.50;2.70;;;10.40;99.90;;;-141.84;78.80;18371.13;5097923;27;20662;-65
2022/09/20 05:15:02;;;;;;;4.33;3.03;;;10.40;99.90;;;-141.84;78.62;18425.97;5066957;28;20220;-66
2022/09/20 05:18:04;;;;;;;6.13;3.20;;;10.50;99.90;;;-141.84;78.89;18411.75;5087055;28;20245;-66
2022/09/20 05:21:24;;;;;;;7.33;3.57;;;10.50;99.90;;;-141.84;79.12;18387.38;5069332;28;20224;-68
2022/09/20 05:24:23;;;;;;;4.50;2.70;;;10.50;99.90;;;-141.84;77.52;18432.09;5068282;28;20234;-66
2022/09/20 05:27:13;;;;;;;9.60;5.23;;;10.50;99.90;;;-141.84;77.89;18417.84;5068520;28;20660;-66
2022/09/20 05:29:52;;;;;;;7.17;3.63;;;10.50;99.90;;;-141.84;78.23;18423.94;5088275;28;20232;-66
2022/09/20 05:32:29;;;;;;;5.27;3.20;;;10.60;99.90;;;-141.84;78.68;18411.75;5088146;28;20227;-66
2022/09/20 05:35:05;;;;;;;6.80;3.50;;;10.60;99.90;;;-141.84;76.39;18460.53;5088308;28;20250;-65
2022/09/20 05:37:49;;;;;;;9.50;3.87;;;10.60;99.90;;;-141.84;76.21;18468.66;5087819;28;20231;-65
2022/09/20 05:40:29;;;;;;;8.07;3.10;;;10.60;99.90;;;-141.84;77.03;18458.50;5088037;28;20532;-64
2022/09/20 05:43:11;;;;;;;6.77;3.40;;;10.60;99.90;;;-141.84;77.55;18432.09;5087990;28;20234;-65
2022/09/20 05:46:02;;;;;;;5.93;3.60;;;10.60;99.90;;;-141.84;77.52;18452.41;5088334;28;20228;-65
2022/09/20 05:48:44;;;;;;;5.97;3.60;;;10.60;99.90;;;-141.84;78.11;18442.25;5088296;28;20660;-65
2022/09/20 05:51:30;;;;;;;10.90;4.30;;;10.70;99.90;;;-141.84;76.77;18482.88;5088536;28;20208;-66
2022/09/20 05:54:35;;;;;;;8.47;4.87;;;10.80;99.90;;;-141.84;77.09;18466.63;5088100;28;20229;-65
2022/09/20 05:57:27;;;;;;;11.33;4.40;;;10.80;99.90;;;-141.84;77.52;18484.91;5087697;28;20208;-64
2022/09/20 06:00:07;;;;;;;8.67;4.53;;;10.80;99.90;;;-141.84;77.05;18478.81;5087969;28;20223;-65
2022/09/20 06:02:52;;;;;;;8.67;5.37;;;10.90;99.90;;;-141.84;76.60;18491.00;5087545;28;20228;-65
2022/09/20 06:05:37;;;;;;;7.60;4.97;;;10.90;99.90;;;-141.84;75.42;18495.06;5087647;28;20232;-65
2022/09/20 06:08:43;;;;;;;7.13;4.83;;;10.90;99.90;;;-141.84;75.94;18519.44;5087330;28;20224;-65
2022/09/20 06:11:39;;;;;;;10.97;5.30;;;11.00;99.90;;;-141.84;76.70;18507.25;5087450;28;20768;-66
2022/09/20 06:14:26;;;;;;;9.37;5.63;;;10.90;99.90;;;-141.84;76.44;18488.97;5087444;28;20231;-66
2022/09/20 06:17:06;;;;;;;11.13;5.40;;;11.00;99.90;;;-141.84;76.67;18517.41;5087446;28;20231;-64
2022/09/20 06:19:44;;;;;;;10.47;5.77;;;11.00;99.90;;;-141.84;75.68;18525.53;5087515;28;20216;-65
2022/09/20 06:22:19;;;;;;;9.03;5.27;;;11.00;99.90;;;-141.84;75.89;18543.81;5075573;28;20348;-65
2022/09/20 06:24:59;;;;;;;9.97;5.57;;;11.10;99.90;;;-141.84;74.94;18586.50;5073865;28;20223;-65
2022/09/20 06:27:36;;;;;;;7.07;4.87;;;11.20;99.90;;;-141.84;75.69;18572.25;5073935;28;20262;-65
2022/09/20 06:30:13;;;;;;;8.27;5.37;;;11.20;99.90;;;-141.84;76.19;18602.75;5074380;28;20215;-64
2022/09/20 06:32:59;;;;;;;13.57;5.60;;;11.30;99.90;;;-141.84;76.89;18545.84;5073623;28;20209;-65
2022/09/20 06:35:37;;;;;;;10.20;5.77;;;11.30;99.90;;;-141.84;75.91;18543.81;5073623;28;20228;-65
2022/09/20 06:41:29;;;;;;;8.27;5.30;;;11.20;99.90;;;-141.84;76.31;18547.88;5047874;28;20720;-65
2022/09/20 06:43:58;;;;;;;7.57;4.90;;;11.20;99.90;;;-141.84;75.57;18531.63;5073216;28;20315;-65
2022/09/20 06:46:28;;;;;;;9.13;4.43;;;11.20;99.90;;;-141.84;75.86;18547.88;5073394;28;20231;-65
2022/09/20 06:48:58;;;;;;;7.73;4.53;;;11.20;99.90;;;-141.84;76.17;18604.78;5073347;28;20224;-65
2022/09/20 06:51:33;;;;;;;8.83;5.47;;;11.20;99.90;;;-141.84;75.90;18582.44;5073419;28;20209;-68
2022/09/20 06:54:02;;;;;;;9.20;4.90;;;11.30;99.90;;;-141.84;73.95;18665.72;5073841;28;20188;-65
2022/09/20 06:56:35;;;;;;;10.10;4.50;;;11.30;99.90;;;-141.84;74.57;18614.94;5073038;28;20720;-65
2022/09/20 06:59:03;;;;;;;8.00;4.70;;;11.40;99.90;;;-141.84;75.01;18637.28;5072906;28;20749;-64
2022/09/20 07:01:31;;;;;;;9.97;4.93;;;11.50;99.90;;;-141.84;73.53;18667.75;5073411;28;20540;-64
2022/09/20 07:04:01;;;;;;;7.33;4.60;;;11.50;99.90;;;-141.84;71.94;18708.41;5072022;28;20540;-65
2022/09/20 07:06:29;;;;;;;7.70;4.17;;;11.60;99.90;;;-141.84;72.57;18726.69;5071312;28;20668;-65
2022/09/20 07:08:58;;;;;;;6.15;4.30;;;11.70;99.90;;;-141.84;71.83;18734.81;5071320;28;20262;-65
2022/09/20 07:11:26;;;;;;;5.17;4.30;;;11.70;99.90;;;-141.84;72.32;18773.41;5071039;28;20761;-66
2022/09/20 07:13:57;;;;;;;6.37;4.30;;;11.80;99.90;;;-141.84;72.50;18753.09;5070871;28;20228;-65
2022/09/20 07:16:25;;;;;;;10.30;4.70;;;11.90;99.90;;;-141.84;72.48;18749.03;5072569;28;20331;-64
2022/09/20 07:18:55;;;;;;;10.53;4.60;;;12.00;99.90;;;-141.84;72.60;18773.41;5072922;28;20238;-65
2022/09/20 07:21:25;;;;;;;8.37;4.63;;;12.10;99.90;;;-141.84;72.13;18795.75;5072547;28;20250;-66
2022/09/20 07:23:53;;;;;;;7.33;5.13;;;12.10;99.90;;;-141.84;71.97;18779.50;5072788;28;20226;-64
2022/09/20 07:26:24;;;;;;;8.83;5.23;;;12.10;99.90;;;-141.84;71.36;18816.06;5072535;28;20773;-65
2022/09/20 07:28:52;;;;;;;12.23;5.03;;;12.20;99.90;;;-141.84;70.15;18899.38;5072295;28;20228;-66
2022/09/20 07:31:23;;;;;;;6.83;4.53;;;12.20;99.90;;;-141.84;69.91;18897.34;5072611;28;20228;-65
2022/09/20 07:33:51;;;;;;;10.63;4.93;;;12.20;99.90;;;-141.84;68.99;18931.91;5071587;28;20224;-65
2022/09/20 07:36:20;;;;;;;8.70;4.70;;;12.20;99.90;;;-141.84;69.18;18960.34;5072649;28;20200;-65
2022/09/20 07:38:51;;;;;;;8.60;5.03;;;12.20;99.90;;;-141.84;69.01;18929.88;5072693;28;20197;-64
2022/09/20 07:41:21;;;;;;;8.93;5.00;;;12.20;99.90;;;-141.84;69.80;18948.16;5073001;28;20229;-66
2022/09/20 07:43:51;;;;;;;9.30;5.40;;;12.20;99.90;;;-141.84;69.69;18948.16;5072236;28;20311;-65
2022/09/20 07:46:21;;;;;;;11.43;5.63;;;12.30;99.90;;;-141.84;69.58;18948.16;5072571;28;20220;-66
2022/09/20 07:48:49;;;;;;;11.50;5.50;;;12.40;99.90;;;-141.84;69.54;18964.41;5072447;28;20250;-66
2022/09/20 07:51:17;;;;;;;6.70;4.80;;;12.40;99.90;;;-141.84;69.60;18990.81;5072153;28;20225;-64
2022/09/20 07:53:45;;;;;;;10.63;5.13;;;12.50;99.90;;;-141.84;68.95;19021.31;5072218;28;20660;-65
2022/09/20 07:56:17;;;;;;;9.80;5.90;;;12.70;99.90;;;-141.84;67.78;19104.59;5072161;28;20289;-66
2022/09/20 07:58:46;;;;;;;7.40;4.80;;;12.70;99.90;;;-141.84;68.09;19078.19;5071618;28;20643;-64
2022/09/20 08:01:20;;;;;;;9.20;5.20;;;12.80;99.90;;;-141.84;67.00;19108.69;5072014;28;20710;-65
2022/09/20 08:03:50;;;;;;;9.60;5.53;;;12.90;99.90;;;-141.84;67.31;19129.00;5071939;28;20610;-67
2022/09/20 08:06:20;;;;;;;8.00;5.73;;;12.80;99.90;;;-141.84;66.84;19187.91;5071828;28;20250;-65
2022/09/20 08:08:50;;;;;;;9.48;5.40;;;12.80;99.90;;;-141.84;65.25;19285.47;5071929;28;20288;-65
2022/09/20 08:11:24;;;;;;;9.90;6.30;;;12.90;99.90;;;-141.84;65.46;19269.22;5071818;28;20221;-65
2022/09/20 08:13:57;;;;;;;8.33;5.73;;;13.00;99.90;;;-141.84;64.97;19332.19;5071480;28;20232;-65
2022/09/20 08:16:40;;;;;;;8.50;5.00;;;13.10;99.90;;;-141.84;64.75;19370.81;5071720;28;20727;-66
2022/09/20 08:19:11;;;;;;;9.10;5.85;;;13.30;99.90;;;-141.84;63.12;19529.31;5071715;28;20220;-66
2022/09/20 08:21:39;;;;;;;9.07;5.25;;;13.50;99.90;;;-141.84;62.84;19612.63;5071619;28;20236;-65
2022/09/20 08:24:07;;;;;;;8.88;5.45;;;13.60;99.90;;;-141.84;62.46;19594.34;5071952;28;20200;-65
2022/09/20 08:26:37;;;;;;;7.93;5.25;;;13.50;99.90;;;-141.84;63.65;19557.78;5071409;28;20609;-66
2022/09/20 08:29:06;;;;;;;8.82;5.72;;;13.50;99.90;;;-141.84;63.57;19466.31;5071012;28;20228;-66
2022/09/20 08:31:39;;;;;;;11.65;5.53;;;13.30;99.90;;;-141.84;65.05;19411.44;5071354;28;20587;-65
2022/09/20 08:34:09;;;;;;;7.78;5.15;;;13.20;99.90;;;-141.84;65.84;19340.31;5071060;28;20224;-64
2022/09/20 08:36:44;;;;;;;9.23;5.35;;;13.20;99.90;;;-141.84;64.90;19456.16;5071168;28;20700;-65
2022/09/20 08:39:13;;;;;;;8.40;5.13;;;13.40;99.90;;;-141.84;62.97;19600.44;5071573;28;20356;-66
2022/09/20 08:42:14;;;;;;;7.97;5.40;;;13.70;99.90;;;-141.84;63.51;19574.03;5071092;28;20216;-65
2022/09/20 08:44:51;;;;;;;9.27;5.40;;;13.80;99.90;;;-141.84;63.83;19553.72;5071111;28;20216;-66
2022/09/20 08:47:31;;;;;;;7.05;4.47;;;13.80;99.90;;;-141.84;61.34;19720.34;5071419;28;20232;-67
2022/09/20 08:50:03;;;;;;;6.60;4.43;;;13.90;99.90;;;-141.84;60.23;19842.28;5070931;28;20225;-65
2022/09/20 08:52:47;;;;;;;11.60;4.65;;;14.00;99.90;;;-141.84;60.48;19864.66;5070859;28;20235;-66
2022/09/20 08:55:19;;;;;;;5.82;4.03;;;14.00;99.90;;;-141.84;58.58;20000.81;5071155;28;20595;-66
2022/09/20 08:57:53;;;;;;;5.50;3.92;;;14.20;99.90;;;-141.84;58.84;20031.31;5070959;28;20228;-66
2022/09/20 09:00:25;;;;;;;7.47;4.15;;;14.30;99.90;;;-141.84;57.87;20120.75;5071201;28;20192;-65
2022/09/20 09:02:59;;;;;;;8.07;3.90;;;14.50;99.90;;;-141.84;56.19;20216.25;5071475;28;20185;-65
2022/09/20 09:05:34;;;;;;;4.25;3.53;;;14.50;99.90;;;-141.84;56.17;20242.69;5070731;28;20274;-65
2022/09/20 09:08:11;;;;;;;6.70;3.58;;;14.60;99.90;;;-141.84;56.21;20230.50;5070818;28;20224;-67
2022/09/20 09:10:40;;;;;;;6.20;3.50;;;14.50;99.90;;;-141.84;55.75;20228.47;5070758;28;20254;-64
2022/09/20 09:13:21;;;;;;;6.40;3.60;;;14.50;99.90;;;-141.84;56.79;20185.78;5070709;28;20729;-64
2022/09/20 09:15:58;;;;;;;5.82;3.40;;;14.30;99.90;;;-141.84;57.17;20177.66;5070644;28;20212;-65
2022/09/20 09:18:35;;;;;;;4.80;3.35;;;14.20;99.90;;;-141.84;58.18;20112.59;5070870;28;20189;-65
2022/09/20 09:21:07;;;;;;;5.85;3.83;;;14.10;99.90;;;-141.84;58.39;20086.19;5071396;28;20184;-65
2022/09/20 09:23:49;;;;;;;7.05;3.78;;;14.00;99.90;;;-141.84;58.42;20108.53;5070415;28;20228;-65
2022/09/20 09:26:21;;;;;;;6.10;4.00;;;14.00;99.90;;;-141.84;57.57;20175.63;5070796;28;20579;-65
2022/09/20 09:29:15;;;;;;;8.45;4.20;;;14.20;99.90;;;-141.84;56.60;20256.91;5070783;28;20254;-66
2022/09/20 09:31:45;;;;;;;6.50;4.07;;;14.30;99.90;;;-141.84;55.11;20382.94;5070667;28;20722;-64
2022/09/20 09:34:28;;;;;;;6.65;3.85;;;14.50;99.90;;;-141.84;54.78;20391.06;5070524;28;20220;-65
2022/09/20 09:36:58;;;;;;;5.18;3.53;;;14.80;99.90;;;-141.84;55.54;20391.06;5070597;28;20224;-66
2022/09/20 09:39:28;;;;;;;6.63;4.10;;;14.90;99.90;;;-141.84;55.91;20354.47;5070843;28;20201;-66
2022/09/20 09:41:59;;;;;;;5.13;3.53;;;14.80;99.90;;;-141.84;56.70;20265.03;5071328;28;20181;-66
2022/09/20 09:44:32;;;;;;;5.32;3.75;;;14.60;99.90;;;-141.84;57.88;20206.09;5070548;28;20262;-65
2022/09/20 09:47:01;;;;;;;6.32;3.88;;;14.40;99.90;;;-141.84;58.86;20187.81;5070623;28;20751;-65
2022/09/20 09:49:34;;;;;;;6.00;4.20;;;14.40;99.90;;;-141.84;60.05;20106.50;5070865;28;20247;-65
2022/09/20 09:52:13;;;;;;;9.15;4.20;;;14.20;99.90;;;-141.84;59.46;20071.97;5070670;28;20419;-65
2022/09/20 09:54:49;;;;;;;5.30;4.45;;;14.20;99.90;;;-141.84;59.67;20143.09;5070621;28;20311;-67
2022/09/20 09:57:37;;;;;;;6.43;4.22;;;14.30;99.90;;;-141.84;57.35;20191.88;5073419;28;20195;-65
2022/09/20 10:00:11;;;;;;;4.70;3.65;;;14.30;99.90;;;-141.84;57.03;20240.66;5074762;28;20185;-65
2022/09/20 10:03:21;;;;;;;6.65;4.32;;;14.50;99.90;;;-141.84;56.13;20287.41;5074654;28;20250;-65
2022/09/20 10:06:15;;;;;;;6.05;3.50;;;14.50;99.90;;;-141.84;55.42;20362.63;5074562;28;20266;-66
2022/09/20 10:09:11;;;;;;;4.97;3.00;;;14.90;99.90;;;-141.84;52.63;20527.25;5074046;28;20262;-65
2022/09/20 10:12:01;;;;;;;6.05;3.08;;;15.20;99.90;;;-141.84;51.92;20549.63;5073774;28;20639;-65
2022/09/20 10:14:54;;;;;;;5.65;3.33;;;15.40;99.90;;;-141.84;53.86;20460.19;5074019;28;20236;-67
2022/09/20 10:17:47;;;;;;;6.10;3.53;;;15.30;99.90;;;-141.84;54.36;20393.09;5073933;28;20307;-65
2022/09/20 10:20:41;;;;;;;7.13;3.20;;;15.10;99.90;;;-141.84;55.25;20340.25;5073971;28;20282;-65
2022/09/20 10:23:28;;;;;;;4.90;2.80;;;14.80;99.90;;;-141.84;55.49;20346.34;5073594;28;20258;-65
2022/09/20 10:26:35;;;;;;;7.65;3.17;;;14.80;99.90;;;-141.84;54.77;20431.72;5073454;28;20259;-66
2022/09/20 10:29:24;;;;;;;5.05;2.70;;;15.00;99.90;;;-141.84;53.44;20456.13;5073661;28;20228;-65
2022/09/20 10:32:09;;;;;;;4.80;2.80;;;15.10;99.90;;;-141.84;52.99;20472.38;5073653;28;20232;-66
2022/09/20 10:35:12;;;;;;;6.95;3.83;;;15.30;99.90;;;-141.84;53.67;20466.28;5073875;28;20684;-65
2022/09/20 10:38:01;;;;;;;4.60;3.08;;;15.40;99.90;;;-141.84;54.23;20502.88;5073689;28;20225;-66
2022/09/20 10:43:58;;;;;;;6.05;3.25;;;15.10;99.90;;;-141.84;56.14;20326.03;5073382;28;20228;-65
2022/09/20 10:46:48;;;;;;;3.88;2.40;;;14.80;99.90;;;-141.84;55.35;20411.41;5073763;28;20224;-65
2022/09/20 10:49:27;;;;;;;3.53;2.55;;;14.90;99.90;;;-141.84;53.23;20492.72;5073802;28;20239;-65
2022/09/20 10:52:27;;;;;;;4.55;2.78;;;15.10;99.90;;;-141.84;52.82;20513.03;5073126;28;20691;-66
2022/09/20 10:55:25;;;;;;;5.10;2.70;;;15.30;99.90;;;-141.84;53.67;20484.56;5073624;28;20231;-65
2022/09/20 10:58:27;;;;;;;5.63;3.50;;;15.30;99.90;;;-141.84;55.36;20427.66;5073258;28;20228;-66
2022/09/20 11:01:05;;;;;;;7.60;4.05;;;15.20;99.90;;;-141.84;56.77;20346.34;5073465;28;20223;-65
2022/09/20 11:04:44;;;;;;;6.28;3.58;;;15.00;99.90;;;-141.84;57.57;20309.75;5073343;28;20645;-66
2022/09/20 11:07:22;;;;;;;7.07;3.53;;;14.70;99.90;;;-141.84;58.30;20277.25;5036640;28;20232;-66
2022/09/20 11:09:59;;;;;;;4.32;3.25;;;14.50;99.90;;;-141.84;59.00;20165.44;5073015;28;20601;-66
2022/09/20 11:12:37;;;;;;;5.05;3.42;;;14.30;99.90;;;-141.84;60.04;20102.44;5073521;28;20667;-65
2022/09/20 11:15:19;;;;;;;5.30;3.33;;;14.20;99.90;;;-141.84;58.82;20230.50;5073796;28;20185;-66
2022/09/20 11:18:03;;;;;;;5.57;3.47;;;14.40;99.90;;;-141.84;58.16;20246.75;5073293;28;20208;-66
2022/09/20 11:20:42;;;;;;;4.88;3.30;;;14.50;99.90;;;-141.84;56.94;20340.25;5072962;28;20648;-66